Teterboro, NJ

12:25 PM EST en Febrero 28, 2015 (GMT -0500)
Teterboro | Change Station
CLOSE
Current Station
Aeropuerto
Location: Teterboro,
Altura: 7 ft
Estaciones meteorológicas cercanas

Alt 7 ft 40.86 °N, 74.06 °W | Updated 34 minutes ago

Despejado
Despejado
23 ° F
Sensación térmica 16 ° F
N
6
Viento Variable Viento desde ONO

Hoy
Alta -- | Baja -- ° F
--% Posibilidad de precipitaciones
Ayer
Alta -- | Baja -- ° F
Precip. -- pul
6:32 AM 5:45 PM
Gibosa creciente, 79% visible
Presión 30.82 pul
Visibilidad 10.0 Millas
Nubes Despejado
Vientos helados 16 ° F
Punto de rocío -1 ° F
Humedad 35%
Precipitaciones 0.00 pul
Espesor de la nieve No disponible.
UV 5 de una escala de 12
Polen .50 de una escala de 12
Calidad del aire No disponible.
Flu Activity No disponible.
METAR KTEB 281651Z 29005KT 10SM CLR M05/M18 A3082 RMK AO2 SLP435 T10501183

More Conditions Fewer Conditions

Presión 30.82 pul
Visibilidad 10.0 Millas
Nubes Despejado
Vientos helados 16 ° F
Punto de rocío -1 ° F
Humedad 35%
Precipitaciones 0.00 pul
Espesor de la nieve No disponible.
UV 5 de una escala de 12
Polen .50 de una escala de 12
Calidad del aire No disponible.
Flu Activity No disponible.
METAR KTEB 281651Z 29005KT 10SM CLR M05/M18 A3082 RMK AO2 SLP435 T10501183

More Conditions Fewer Conditions

10-Day Weather Forecast

Almanac

Astronomía

Feb. 28, 2015 Salida Puesta
Hora real
Crepúsculo civil
Crepúsculo náutico
Crepúsculo astronómico
Luna
Horas de luz
Horas de luz
Tomorrow will be .
, % of the Moon is Illuminated

Extremos de hoy

Máximos del estado Bajos del estado

Community

WunderPhotos

Upload Photos

1,801,101 ¡fotos cargadas!

WunderBlogs® & News

Nearby

Calidad del aire

  Calidad del aire Índice AQ Contaminante
Not available.

Grosos de nieve

Estación Profundido Altura

Actividad de terremotos

Ciudad Distance Mag. Tiempo y dato
Magnitud mínima muestra es 2,5.

Temperaturas de aguas costeras

Lugar Temperatura

Estaciones meteorológicas cercanas